createdAt,value
2023-12-09T00:03:52.653Z,97584.59
2023-12-09T00:08:54.367Z,97586.09
2023-12-09T00:13:55.967Z,97591.06
2023-12-09T00:18:59.499Z,97588.00
2023-12-09T00:24:01.058Z,97578.91
2023-12-09T00:29:02.518Z,97577.25
2023-12-09T00:34:04.121Z,97574.75
2023-12-09T00:39:06.371Z,97578.41
2023-12-09T00:44:07.945Z,97589.28
2023-12-09T00:49:09.589Z,97583.13
2023-12-09T00:54:11.225Z,97589.44
2023-12-09T00:59:12.700Z,97585.94
2023-12-09T01:04:14.467Z,97585.25
2023-12-09T01:09:16.073Z,97588.59
2023-12-09T01:14:17.687Z,97592.06
2023-12-09T01:19:19.195Z,97592.06
2023-12-09T01:24:21.051Z,97595.09
2023-12-09T01:29:22.508Z,97592.81
2023-12-09T01:34:24.024Z,97590.53
2023-12-09T01:39:25.598Z,97596.66
2023-12-09T01:44:27.127Z,97597.34
2023-12-09T01:49:29.064Z,97593.56
2023-12-09T01:54:30.878Z,97585.47
2023-12-09T01:59:32.447Z,97589.63
2023-12-09T02:04:34.053Z,97590.44
2023-12-09T02:09:38.598Z,97589.44
2023-12-09T02:14:46.257Z,97585.00
2023-12-09T02:19:48.277Z,97583.19
2023-12-09T02:24:49.735Z,97593.78
2023-12-09T02:29:57.160Z,97606.00
2023-12-09T02:35:01.064Z,97595.44
2023-12-09T02:40:03.471Z,97607.00
2023-12-09T02:45:07.417Z,97598.06
2023-12-09T02:50:09.231Z,97602.22
2023-12-09T02:55:12.501Z,97605.69
2023-12-09T03:00:14.632Z,97600.59
2023-12-09T03:05:16.186Z,97610.31
2023-12-09T03:10:17.688Z,97614.31
2023-12-09T03:15:19.270Z,97604.56
2023-12-09T03:20:21.943Z,97610.69
2023-12-09T03:25:23.421Z,97611.06
2023-12-09T03:30:24.945Z,97599.47
2023-12-09T03:35:26.428Z,97596.84
2023-12-09T03:40:27.882Z,97606.13
2023-12-09T03:45:29.473Z,97609.44
2023-12-09T03:50:30.953Z,97623.38
2023-12-09T03:55:32.434Z,97615.44
2023-12-09T04:00:33.982Z,97620.72
2023-12-09T04:05:35.578Z,97625.88
2023-12-09T04:10:37.085Z,97637.81
2023-12-09T04:15:41.515Z,97626.91
2023-12-09T04:20:43.077Z,97626.91
2023-12-09T04:25:44.560Z,97624.13
2023-12-09T04:30:46.048Z,97618.84
2023-12-09T04:35:47.625Z,97624.13
2023-12-09T04:40:49.220Z,97628.59
2023-12-09T04:45:50.761Z,97633.59
2023-12-09T04:50:52.279Z,97633.41
2023-12-09T04:55:53.766Z,97634.91
2023-12-09T05:00:55.257Z,97629.47
2023-12-09T05:05:56.962Z,97635.28
2023-12-09T05:10:59.227Z,97636.81
2023-12-09T05:16:00.672Z,97635.94
2023-12-09T05:21:02.202Z,97628.69
2023-12-09T05:26:03.981Z,97616.28
2023-12-09T05:31:05.617Z,97615.75
2023-12-09T05:36:07.610Z,97621.22
2023-12-09T05:41:09.965Z,97623.88
2023-12-09T05:46:21.411Z,97620.91
2023-12-09T05:51:22.954Z,97628.00
2023-12-09T05:56:24.489Z,97630.66
2023-12-09T06:01:25.993Z,97617.59
2023-12-09T06:06:27.702Z,97615.94
2023-12-09T06:11:29.253Z,97610.63
2023-12-09T06:16:30.798Z,97609.97
2023-12-09T06:21:32.312Z,97605.78
2023-12-09T06:26:33.854Z,97611.41
2023-12-09T06:31:35.452Z,97612.09
2023-12-09T06:36:37.079Z,97600.34
2023-12-09T06:41:41.414Z,97601.31
2023-12-09T06:46:42.969Z,97600.50
2023-12-09T06:51:44.803Z,97592.56
2023-12-09T06:56:46.385Z,97588.09
2023-12-09T07:01:50.421Z,97600.69
2023-12-09T07:06:51.964Z,97596.72
2023-12-09T07:12:01.752Z,97599.06
2023-12-09T07:17:04.387Z,97613.63
2023-12-09T07:22:06.338Z,97620.22
2023-12-09T07:27:08.042Z,97617.91
2023-12-09T07:32:09.617Z,97618.91
2023-12-09T07:37:12.818Z,97615.31
2023-12-09T07:42:14.428Z,97622.44
2023-12-09T07:47:16.170Z,97624.63
2023-12-09T07:52:17.725Z,97619.53
2023-12-09T07:57:34.504Z,97614.13
2023-12-09T08:02:36.226Z,97616.78
2023-12-09T08:07:38.137Z,97603.09
2023-12-09T08:12:39.770Z,97621.81
2023-12-09T08:17:41.669Z,97609.56
2023-12-09T08:22:43.265Z,97600.66
2023-12-09T08:27:54.481Z,97597.38
2023-12-09T17:05:58.586Z,96905.69
2023-12-09T17:11:02.424Z,96899.63
2023-12-09T17:16:04.930Z,96884.25
2023-12-09T17:21:06.614Z,96878.47
2023-12-09T17:26:08.178Z,96854.56
2023-12-09T17:31:09.769Z,96849.94
2023-12-09T17:36:11.476Z,96843.31
2023-12-09T17:41:13.018Z,96839.50
2023-12-09T17:46:14.599Z,96823.81
2023-12-09T17:51:16.265Z,96817.66
2023-12-09T17:56:17.869Z,96795.47
2023-12-09T18:01:20.090Z,96776.41
2023-12-09T18:06:22.584Z,96759.28
2023-12-09T18:11:24.163Z,96763.72
2023-12-09T18:16:26.146Z,96736.59
2023-12-09T18:21:27.850Z,96705.31
2023-12-09T18:26:29.377Z,96682.16
2023-12-09T18:31:30.882Z,96645.56
2023-12-09T18:36:32.478Z,96630.97
2023-12-09T18:41:34.057Z,96607.00
2023-12-09T18:46:35.710Z,96605.63
2023-12-09T18:51:37.392Z,96585.94
2023-12-09T18:56:39.083Z,96574.50
2023-12-09T19:01:40.852Z,96567.25
2023-12-09T19:06:49.885Z,96551.19
2023-12-09T19:11:58.282Z,96539.59
2023-12-09T19:16:59.901Z,96519.44
2023-12-09T19:22:01.476Z,96496.13
2023-12-09T19:27:04.820Z,96479.16
2023-12-09T19:32:07.226Z,96468.13
2023-12-09T19:37:08.882Z,96463.03
2023-12-09T19:42:10.507Z,96462.38
2023-12-09T19:47:12.055Z,96444.88
2023-12-09T19:52:13.866Z,96448.50
2023-12-09T19:57:15.422Z,96447.69
2023-12-09T20:02:16.956Z,96437.91
2023-12-09T20:07:18.990Z,96428.44
2023-12-09T20:12:20.592Z,96412.41
2023-12-09T20:17:22.175Z,96411.22
2023-12-09T20:22:23.804Z,96411.47
2023-12-09T20:27:25.454Z,96398.88
2023-12-09T20:32:27.628Z,96414.41
2023-12-09T20:37:29.379Z,96412.75
2023-12-09T20:42:31.116Z,96421.22
2023-12-09T20:47:33.393Z,96408.56
2023-12-09T20:52:35.006Z,96419.88
2023-12-09T20:57:36.612Z,96430.47
2023-12-09T21:02:39.717Z,96417.84
2023-12-09T21:07:41.402Z,96408.56
2023-12-09T21:12:43.013Z,96393.31
2023-12-09T21:17:44.678Z,96380.09
2023-12-09T21:22:46.200Z,96378.47
2023-12-09T21:27:47.803Z,96356.47
2023-12-09T21:32:49.377Z,96363.31
2023-12-09T21:37:50.916Z,96360.88
2023-12-09T21:42:52.952Z,96357.22
2023-12-09T21:47:55.636Z,96343.78
2023-12-09T21:52:57.757Z,96331.94
2023-12-09T21:57:59.315Z,96338.63
2023-12-09T22:03:01.966Z,96324.50
2023-12-09T22:08:03.694Z,96328.06
2023-12-09T22:13:06.423Z,96306.19
2023-12-09T22:18:08.976Z,96290.81
2023-12-09T22:23:10.632Z,96285.31
2023-12-09T22:28:12.201Z,96285.44
2023-12-09T22:33:13.779Z,96279.50
2023-12-09T22:38:15.350Z,96287.13
2023-12-09T22:43:16.848Z,96296.53
2023-12-09T22:48:18.666Z,96295.72
2023-12-09T22:53:20.390Z,96304.28
2023-12-09T22:58:22.252Z,96286.78
2023-12-09T23:03:27.572Z,96277.03
2023-12-09T23:08:29.517Z,96269.28
2023-12-09T23:13:31.063Z,96268.84
